Main page
METAR-TAF:

METAR-TAF

Airports :

Houston Executive Airport

Houston, Texas, United States

latitude: 29-48-18N, longitude: 095-53-52W, elevation: 167 ft

Current weather observation

The report was made 20 minutes ago, at 01:35 UTC
Wind 17 mph from the North/Northeast with gusts up to 23 mph
Temperature 48°F
Humidity 81%
Pressure 30.48 in. Hg
Visibility: 10 miles
Scattered clouds at a height of 3400 ft
Overcast at a height of 10000 ft

METAR: KTME 210135Z AUTO 02015G20KT 10SM SCT034 OVC100 09/06 A3048 RMK AO2

Time: 18:55 (01:55 UTC)


TAF: missing

Weather observations and forecasts of more than 4000 airports (METAR and TAF reports).

The available stations are represented by yellow and red dots on the map.

Hover mouse over dot to see the name of the station.

Then click to see weather observations and forecasts.

To change the map : click on the green buttons with a black cross to zoom in, on the green button with a dash to zoom out, or on the green arrows for adjacent maps.


METAR-TAF: